sensor_id;sensor_type;location;lat;lon;timestamp;temperature;humidity
9177;DHT22;4623;54.310;10.112;2022-10-31T00:00:20;14.90;99.90
9177;DHT22;4623;54.310;10.112;2022-10-31T00:02:46;14.90;99.90
9177;DHT22;4623;54.310;10.112;2022-10-31T00:05:12;14.80;99.90
9177;DHT22;4623;54.310;10.112;2022-10-31T00:07:37;14.70;99.90
9177;DHT22;4623;54.310;10.112;2022-10-31T00:10:03;14.70;99.90
9177;DHT22;4623;54.310;10.112;2022-10-31T00:12:29;14.60;99.90
9177;DHT22;4623;54.310;10.112;2022-10-31T00:14:55;14.60;99.90
9177;DHT22;4623;54.310;10.112;2022-10-31T00:17:20;14.60;99.90
9177;DHT22;4623;54.310;10.112;2022-10-31T00:19:46;14.60;99.90
9177;DHT22;4623;54.310;10.112;2022-10-31T00:22:11;14.50;99.90
9177;DHT22;4623;54.310;10.112;2022-10-31T00:24:37;14.50;99.90
9177;DHT22;4623;54.310;10.112;2022-10-31T00:27:03;14.50;99.90
9177;DHT22;4623;54.310;10.112;2022-10-31T00:29:28;14.40;99.90
9177;DHT22;4623;54.310;10.112;2022-10-31T00:31:54;14.40;99.90
9177;DHT22;4623;54.310;10.112;2022-10-31T00:34:19;14.40;99.90
9177;DHT22;4623;54.310;10.112;2022-10-31T00:36:45;14.50;99.90
9177;DHT22;4623;54.310;10.112;2022-10-31T00:39:10;14.50;99.90
9177;DHT22;4623;54.310;10.112;2022-10-31T00:41:36;14.50;99.90
9177;DHT22;4623;54.310;10.112;2022-10-31T00:44:01;14.50;99.90
9177;DHT22;4623;54.310;10.112;2022-10-31T00:46:27;14.50;99.90
9177;DHT22;4623;54.310;10.112;2022-10-31T00:48:53;14.50;99.90
9177;DHT22;4623;54.310;10.112;2022-10-31T00:51:19;14.50;99.90
9177;DHT22;4623;54.310;10.112;2022-10-31T00:53:44;14.50;99.90
9177;DHT22;4623;54.310;10.112;2022-10-31T00:56:10;14.50;99.90
9177;DHT22;4623;54.310;10.112;2022-10-31T00:58:35;14.50;99.90
9177;DHT22;4623;54.310;10.112;2022-10-31T01:01:02;14.50;99.90
9177;DHT22;4623;54.310;10.112;2022-10-31T01:03:31;14.50;99.90
9177;DHT22;4623;54.310;10.112;2022-10-31T01:06:06;14.50;99.90
9177;DHT22;4623;54.310;10.112;2022-10-31T01:08:32;14.50;99.90
9177;DHT22;4623;54.310;10.112;2022-10-31T01:11:06;14.50;99.90
9177;DHT22;4623;54.310;10.112;2022-10-31T01:13:32;14.50;99.90
9177;DHT22;4623;54.310;10.112;2022-10-31T01:15:59;14.40;99.90
9177;DHT22;4623;54.310;10.112;2022-10-31T01:18:25;14.40;99.90
9177;DHT22;4623;54.310;10.112;2022-10-31T01:21:02;14.40;99.90
9177;DHT22;4623;54.310;10.112;2022-10-31T01:23:28;14.40;99.90
9177;DHT22;4623;54.310;10.112;2022-10-31T01:26:18;14.40;99.90
9177;DHT22;4623;54.310;10.112;2022-10-31T01:28:49;14.50;99.90
9177;DHT22;4623;54.310;10.112;2022-10-31T01:31:16;14.40;99.90
9177;DHT22;4623;54.310;10.112;2022-10-31T01:33:42;14.40;99.90
9177;DHT22;4623;54.310;10.112;2022-10-31T01:36:20;14.40;99.90
9177;DHT22;4623;54.310;10.112;2022-10-31T01:38:47;14.40;99.90
9177;DHT22;4623;54.310;10.112;2022-10-31T01:41:16;14.30;99.90
9177;DHT22;4623;54.310;10.112;2022-10-31T01:43:54;14.30;99.90
9177;DHT22;4623;54.310;10.112;2022-10-31T01:46:46;14.40;99.90
9177;DHT22;4623;54.310;10.112;2022-10-31T01:49:18;14.30;99.90
9177;DHT22;4623;54.310;10.112;2022-10-31T01:51:50;14.30;99.90
9177;DHT22;4623;54.310;10.112;2022-10-31T01:54:20;14.20;99.90
9177;DHT22;4623;54.310;10.112;2022-10-31T01:56:51;14.20;99.90
9177;DHT22;4623;54.310;10.112;2022-10-31T01:59:20;14.20;99.90
9177;DHT22;4623;54.310;10.112;2022-10-31T02:01:47;14.30;99.90
9177;DHT22;4623;54.310;10.112;2022-10-31T02:04:15;14.40;99.90
9177;DHT22;4623;54.310;10.112;2022-10-31T02:06:49;14.50;99.90
9177;DHT22;4623;54.310;10.112;2022-10-31T02:09:16;14.60;99.90
9177;DHT22;4623;54.310;10.112;2022-10-31T02:11:43;14.70;99.90
9177;DHT22;4623;54.310;10.112;2022-10-31T02:14:09;14.70;99.90
9177;DHT22;4623;54.310;10.112;2022-10-31T02:16:35;14.70;99.90
9177;DHT22;4623;54.310;10.112;2022-10-31T02:19:01;14.70;99.90
9177;DHT22;4623;54.310;10.112;2022-10-31T02:21:41;14.80;99.90
9177;DHT22;4623;54.310;10.112;2022-10-31T02:24:31;14.90;99.90
9177;DHT22;4623;54.310;10.112;2022-10-31T02:27:12;15.00;99.90
9177;DHT22;4623;54.310;10.112;2022-10-31T02:30:04;15.00;99.90
9177;DHT22;4623;54.310;10.112;2022-10-31T02:40:29;15.10;99.90
9177;DHT22;4623;54.310;10.112;2022-10-31T02:48:27;14.80;99.90
9177;DHT22;4623;54.310;10.112;2022-10-31T02:50:56;14.70;99.90
9177;DHT22;4623;54.310;10.112;2022-10-31T02:53:23;14.70;99.90
9177;DHT22;4623;54.310;10.112;2022-10-31T02:55:56;14.80;99.90
9177;DHT22;4623;54.310;10.112;2022-10-31T02:58:25;14.80;99.90
9177;DHT22;4623;54.310;10.112;2022-10-31T03:04:37;14.90;99.90
9177;DHT22;4623;54.310;10.112;2022-10-31T03:09:31;14.90;99.90
9177;DHT22;4623;54.310;10.112;2022-10-31T03:12:48;15.00;99.90
9177;DHT22;4623;54.310;10.112;2022-10-31T03:15:01;15.00;99.90
9177;DHT22;4623;54.310;10.112;2022-10-31T03:17:36;15.00;99.90
9177;DHT22;4623;54.310;10.112;2022-10-31T03:20:04;15.00;99.90
9177;DHT22;4623;54.310;10.112;2022-10-31T03:22:32;15.00;99.90
9177;DHT22;4623;54.310;10.112;2022-10-31T03:25:02;15.00;99.90
9177;DHT22;4623;54.310;10.112;2022-10-31T03:27:32;15.00;99.90
9177;DHT22;4623;54.310;10.112;2022-10-31T03:30:02;15.00;99.90
9177;DHT22;4623;54.310;10.112;2022-10-31T03:32:32;14.90;99.90
9177;DHT22;4623;54.310;10.112;2022-10-31T03:35:02;14.90;99.90
9177;DHT22;4623;54.310;10.112;2022-10-31T03:37:32;14.90;99.90
9177;DHT22;4623;54.310;10.112;2022-10-31T03:40:01;14.90;99.90
9177;DHT22;4623;54.310;10.112;2022-10-31T03:42:33;14.90;99.90
9177;DHT22;4623;54.310;10.112;2022-10-31T03:47:29;14.80;99.90
9177;DHT22;4623;54.310;10.112;2022-10-31T03:49:55;14.70;99.90
9177;DHT22;4623;54.310;10.112;2022-10-31T03:52:48;14.70;99.90
9177;DHT22;4623;54.310;10.112;2022-10-31T03:58:25;14.70;99.90
9177;DHT22;4623;54.310;10.112;2022-10-31T04:00:54;14.70;99.90
9177;DHT22;4623;54.310;10.112;2022-10-31T04:03:32;14.80;99.90
9177;DHT22;4623;54.310;10.112;2022-10-31T04:06:03;14.80;99.90
9177;DHT22;4623;54.310;10.112;2022-10-31T04:08:32;14.80;99.90
9177;DHT22;4623;54.310;10.112;2022-10-31T04:11:00;14.80;99.90
9177;DHT22;4623;54.310;10.112;2022-10-31T04:13:29;14.80;99.90
9177;DHT22;4623;54.310;10.112;2022-10-31T04:15:56;14.90;99.90
9177;DHT22;4623;54.310;10.112;2022-10-31T04:18:23;15.00;99.90
9177;DHT22;4623;54.310;10.112;2022-10-31T04:20:58;15.10;99.90
9177;DHT22;4623;54.310;10.112;2022-10-31T04:23:25;15.10;99.90
9177;DHT22;4623;54.310;10.112;2022-10-31T04:25:51;15.10;99.90
9177;DHT22;4623;54.310;10.112;2022-10-31T04:28:17;15.10;99.90
9177;DHT22;4623;54.310;10.112;2022-10-31T04:30:43;15.20;99.90
9177;DHT22;4623;54.310;10.112;2022-10-31T04:33:08;15.10;99.90
9177;DHT22;4623;54.310;10.112;2022-10-31T04:35:34;15.10;99.90
9177;DHT22;4623;54.310;10.112;2022-10-31T04:38:00;15.10;99.90
9177;DHT22;4623;54.310;10.112;2022-10-31T04:40:26;15.00;99.90
9177;DHT22;4623;54.310;10.112;2022-10-31T04:42:51;15.00;99.90
9177;DHT22;4623;54.310;10.112;2022-10-31T04:45:17;15.00;99.90
9177;DHT22;4623;54.310;10.112;2022-10-31T04:47:42;15.00;99.90
9177;DHT22;4623;54.310;10.112;2022-10-31T04:50:08;15.10;99.90
9177;DHT22;4623;54.310;10.112;2022-10-31T04:52:42;15.10;99.90
9177;DHT22;4623;54.310;10.112;2022-10-31T04:55:08;15.10;99.90
9177;DHT22;4623;54.310;10.112;2022-10-31T04:57:45;15.00;99.90
9177;DHT22;4623;54.310;10.112;2022-10-31T05:00:12;15.00;99.90
9177;DHT22;4623;54.310;10.112;2022-10-31T05:02:46;15.00;99.90
9177;DHT22;4623;54.310;10.112;2022-10-31T05:05:13;15.00;99.90
9177;DHT22;4623;54.310;10.112;2022-10-31T05:07:40;15.00;99.90
9177;DHT22;4623;54.310;10.112;2022-10-31T05:10:07;15.00;99.90
9177;DHT22;4623;54.310;10.112;2022-10-31T05:12:35;15.00;99.90
9177;DHT22;4623;54.310;10.112;2022-10-31T05:15:00;15.10;99.90
9177;DHT22;4623;54.310;10.112;2022-10-31T05:17:26;15.10;99.90
9177;DHT22;4623;54.310;10.112;2022-10-31T05:19:51;15.10;99.90
9177;DHT22;4623;54.310;10.112;2022-10-31T05:22:17;15.10;99.90
9177;DHT22;4623;54.310;10.112;2022-10-31T05:24:43;15.10;99.90
9177;DHT22;4623;54.310;10.112;2022-10-31T05:27:08;15.10;99.90
9177;DHT22;4623;54.310;10.112;2022-10-31T05:29:34;15.00;99.90
9177;DHT22;4623;54.310;10.112;2022-10-31T05:31:59;15.00;99.90
9177;DHT22;4623;54.310;10.112;2022-10-31T05:34:25;14.90;99.90
9177;DHT22;4623;54.310;10.112;2022-10-31T05:36:50;14.90;99.90
9177;DHT22;4623;54.310;10.112;2022-10-31T05:39:16;14.90;99.90
9177;DHT22;4623;54.310;10.112;2022-10-31T05:41:42;15.00;99.90
9177;DHT22;4623;54.310;10.112;2022-10-31T05:44:07;15.00;99.90
9177;DHT22;4623;54.310;10.112;2022-10-31T05:46:33;15.10;99.90
9177;DHT22;4623;54.310;10.112;2022-10-31T05:48:58;15.00;99.90
9177;DHT22;4623;54.310;10.112;2022-10-31T05:51:24;15.10;99.90
9177;DHT22;4623;54.310;10.112;2022-10-31T05:53:50;15.00;99.90
9177;DHT22;4623;54.310;10.112;2022-10-31T05:56:15;15.00;99.90
9177;DHT22;4623;54.310;10.112;2022-10-31T05:58:41;15.00;99.90
9177;DHT22;4623;54.310;10.112;2022-10-31T06:01:07;15.00;99.90
9177;DHT22;4623;54.310;10.112;2022-10-31T06:03:32;15.00;99.90
9177;DHT22;4623;54.310;10.112;2022-10-31T06:05:58;15.00;99.90
9177;DHT22;4623;54.310;10.112;2022-10-31T06:08:23;15.00;99.90
9177;DHT22;4623;54.310;10.112;2022-10-31T06:10:49;14.90;99.90
9177;DHT22;4623;54.310;10.112;2022-10-31T06:13:15;14.90;99.90
9177;DHT22;4623;54.310;10.112;2022-10-31T06:15:42;14.90;99.90
9177;DHT22;4623;54.310;10.112;2022-10-31T06:18:08;15.00;99.90
9177;DHT22;4623;54.310;10.112;2022-10-31T06:20:34;15.00;99.90
9177;DHT22;4623;54.310;10.112;2022-10-31T06:23:00;15.00;99.90
9177;DHT22;4623;54.310;10.112;2022-10-31T06:25:26;15.00;99.90
9177;DHT22;4623;54.310;10.112;2022-10-31T06:27:52;15.00;99.90
9177;DHT22;4623;54.310;10.112;2022-10-31T06:30:17;15.00;99.90
9177;DHT22;4623;54.310;10.112;2022-10-31T06:32:43;15.00;99.90
9177;DHT22;4623;54.310;10.112;2022-10-31T06:35:09;14.90;99.90
9177;DHT22;4623;54.310;10.112;2022-10-31T06:37:35;14.90;99.90
9177;DHT22;4623;54.310;10.112;2022-10-31T06:40:00;14.90;99.90
9177;DHT22;4623;54.310;10.112;2022-10-31T06:42:26;14.90;99.90
9177;DHT22;4623;54.310;10.112;2022-10-31T06:44:51;15.00;99.90
9177;DHT22;4623;54.310;10.112;2022-10-31T06:47:17;15.00;99.90
9177;DHT22;4623;54.310;10.112;2022-10-31T06:49:42;15.00;99.90
9177;DHT22;4623;54.310;10.112;2022-10-31T06:52:08;15.10;99.90
9177;DHT22;4623;54.310;10.112;2022-10-31T06:54:34;15.10;99.90
9177;DHT22;4623;54.310;10.112;2022-10-31T06:56:59;15.20;99.90
9177;DHT22;4623;54.310;10.112;2022-10-31T06:59:25;15.20;99.90
9177;DHT22;4623;54.310;10.112;2022-10-31T07:01:50;15.20;99.90
9177;DHT22;4623;54.310;10.112;2022-10-31T07:04:16;15.30;99.90
9177;DHT22;4623;54.310;10.112;2022-10-31T07:06:42;15.30;99.90
9177;DHT22;4623;54.310;10.112;2022-10-31T07:09:07;15.30;99.90
9177;DHT22;4623;54.310;10.112;2022-10-31T07:11:33;15.40;99.90
9177;DHT22;4623;54.310;10.112;2022-10-31T07:13:58;15.40;99.90
9177;DHT22;4623;54.310;10.112;2022-10-31T07:16:24;15.40;99.90
9177;DHT22;4623;54.310;10.112;2022-10-31T07:18:50;15.40;99.90
9177;DHT22;4623;54.310;10.112;2022-10-31T07:21:15;15.50;99.90
9177;DHT22;4623;54.310;10.112;2022-10-31T07:23:41;15.50;99.90
9177;DHT22;4623;54.310;10.112;2022-10-31T07:26:08;15.50;99.90
9177;DHT22;4623;54.310;10.112;2022-10-31T07:28:34;15.40;99.90
9177;DHT22;4623;54.310;10.112;2022-10-31T07:31:00;15.20;99.90
9177;DHT22;4623;54.310;10.112;2022-10-31T07:33:26;15.30;99.90
9177;DHT22;4623;54.310;10.112;2022-10-31T07:35:52;15.30;99.90
9177;DHT22;4623;54.310;10.112;2022-10-31T07:38:18;15.30;99.90
9177;DHT22;4623;54.310;10.112;2022-10-31T07:40:48;15.30;99.90
9177;DHT22;4623;54.310;10.112;2022-10-31T07:43:14;15.40;99.90
9177;DHT22;4623;54.310;10.112;2022-10-31T07:45:40;15.50;99.90
9177;DHT22;4623;54.310;10.112;2022-10-31T07:48:05;15.40;99.90
9177;DHT22;4623;54.310;10.112;2022-10-31T07:50:32;15.40;99.90
9177;DHT22;4623;54.310;10.112;2022-10-31T07:53:04;15.20;99.90
9177;DHT22;4623;54.310;10.112;2022-10-31T07:55:30;15.00;99.90
9177;DHT22;4623;54.310;10.112;2022-10-31T07:58:02;15.10;99.90
9177;DHT22;4623;54.310;10.112;2022-10-31T08:00:28;15.00;99.90
9177;DHT22;4623;54.310;10.112;2022-10-31T08:03:15;14.80;99.90
9177;DHT22;4623;54.310;10.112;2022-10-31T08:05:42;14.90;99.90
9177;DHT22;4623;54.310;10.112;2022-10-31T08:08:08;15.00;99.90
9177;DHT22;4623;54.310;10.112;2022-10-31T08:10:35;15.00;99.90
9177;DHT22;4623;54.310;10.112;2022-10-31T08:13:04;15.20;99.90
9177;DHT22;4623;54.310;10.112;2022-10-31T08:15:30;15.20;99.90
9177;DHT22;4623;54.310;10.112;2022-10-31T08:17:56;15.10;99.90
9177;DHT22;4623;54.310;10.112;2022-10-31T08:20:22;15.00;99.90
9177;DHT22;4623;54.310;10.112;2022-10-31T08:22:59;15.00;99.90
9177;DHT22;4623;54.310;10.112;2022-10-31T08:25:27;14.90;99.90
9177;DHT22;4623;54.310;10.112;2022-10-31T08:27:54;14.80;99.90
9177;DHT22;4623;54.310;10.112;2022-10-31T08:30:21;14.80;99.90
9177;DHT22;4623;54.310;10.112;2022-10-31T08:32:47;14.80;99.90
9177;DHT22;4623;54.310;10.112;2022-10-31T08:35:21;14.90;99.90
9177;DHT22;4623;54.310;10.112;2022-10-31T08:37:52;15.00;99.90
9177;DHT22;4623;54.310;10.112;2022-10-31T08:40:18;15.00;99.90
9177;DHT22;4623;54.310;10.112;2022-10-31T08:42:45;14.90;99.90
9177;DHT22;4623;54.310;10.112;2022-10-31T08:45:10;14.80;99.90
9177;DHT22;4623;54.310;10.112;2022-10-31T08:47:36;14.60;99.90
9177;DHT22;4623;54.310;10.112;2022-10-31T08:50:02;14.60;99.90
9177;DHT22;4623;54.310;10.112;2022-10-31T08:52:27;14.50;99.90
9177;DHT22;4623;54.310;10.112;2022-10-31T08:54:53;14.50;99.90
9177;DHT22;4623;54.310;10.112;2022-10-31T08:57:18;14.40;99.90
9177;DHT22;4623;54.310;10.112;2022-10-31T08:59:44;14.40;99.90
9177;DHT22;4623;54.310;10.112;2022-10-31T09:02:10;14.50;99.90
9177;DHT22;4623;54.310;10.112;2022-10-31T09:04:35;14.60;99.90
9177;DHT22;4623;54.310;10.112;2022-10-31T09:07:03;14.60;99.90
9177;DHT22;4623;54.310;10.112;2022-10-31T09:09:28;14.70;99.90
9177;DHT22;4623;54.310;10.112;2022-10-31T09:11:54;14.60;99.90
9177;DHT22;4623;54.310;10.112;2022-10-31T09:14:19;14.50;99.90
9177;DHT22;4623;54.310;10.112;2022-10-31T09:16:46;14.50;99.90
9177;DHT22;4623;54.310;10.112;2022-10-31T09:19:12;14.40;99.90
9177;DHT22;4623;54.310;10.112;2022-10-31T09:21:37;14.50;99.90
9177;DHT22;4623;54.310;10.112;2022-10-31T09:24:03;14.50;99.90
9177;DHT22;4623;54.310;10.112;2022-10-31T09:26:29;14.50;99.90
9177;DHT22;4623;54.310;10.112;2022-10-31T09:28:55;14.40;99.90
9177;DHT22;4623;54.310;10.112;2022-10-31T09:31:22;14.30;99.90
9177;DHT22;4623;54.310;10.112;2022-10-31T09:33:48;14.30;99.90
9177;DHT22;4623;54.310;10.112;2022-10-31T09:36:14;14.40;99.90
9177;DHT22;4623;54.310;10.112;2022-10-31T09:38:39;14.70;99.90
9177;DHT22;4623;54.310;10.112;2022-10-31T09:44:50;14.90;99.90
9177;DHT22;4623;54.310;10.112;2022-10-31T09:49:51;14.80;99.90
9177;DHT22;4623;54.310;10.112;2022-10-31T09:52:21;14.80;99.90
9177;DHT22;4623;54.310;10.112;2022-10-31T09:55:36;14.70;99.90
9177;DHT22;4623;54.310;10.112;2022-10-31T09:57:42;14.60;99.90
9177;DHT22;4623;54.310;10.112;2022-10-31T10:00:20;14.60;99.90
9177;DHT22;4623;54.310;10.112;2022-10-31T10:05:20;14.70;99.90
9177;DHT22;4623;54.310;10.112;2022-10-31T10:08:16;14.90;99.90
9177;DHT22;4623;54.310;10.112;2022-10-31T10:16:17;14.80;99.90
9177;DHT22;4623;54.310;10.112;2022-10-31T10:30:13;15.20;99.90
9177;DHT22;4623;54.310;10.112;2022-10-31T10:32:44;15.40;99.90
9177;DHT22;4623;54.310;10.112;2022-10-31T10:35:38;15.60;99.90
9177;DHT22;4623;54.310;10.112;2022-10-31T10:38:24;15.80;99.90
9177;DHT22;4623;54.310;10.112;2022-10-31T10:40:53;16.00;99.90
9177;DHT22;4623;54.310;10.112;2022-10-31T10:43:35;16.10;99.90
9177;DHT22;4623;54.310;10.112;2022-10-31T10:49:16;16.10;99.90
9177;DHT22;4623;54.310;10.112;2022-10-31T10:59:52;15.90;99.90
9177;DHT22;4623;54.310;10.112;2022-10-31T11:02:23;15.80;99.90
9177;DHT22;4623;54.310;10.112;2022-10-31T11:04:55;15.80;99.90
9177;DHT22;4623;54.310;10.112;2022-10-31T11:07:22;15.80;99.90
9177;DHT22;4623;54.310;10.112;2022-10-31T11:09:47;15.80;99.90
9177;DHT22;4623;54.310;10.112;2022-10-31T11:12:20;16.00;99.90
9177;DHT22;4623;54.310;10.112;2022-10-31T11:14:53;16.40;99.90
9177;DHT22;4623;54.310;10.112;2022-10-31T11:20:28;16.80;99.90
9177;DHT22;4623;54.310;10.112;2022-10-31T11:23:15;16.90;99.90
9177;DHT22;4623;54.310;10.112;2022-10-31T11:25:48;16.90;99.90
9177;DHT22;4623;54.310;10.112;2022-10-31T11:28:15;16.90;99.90
9177;DHT22;4623;54.310;10.112;2022-10-31T11:31:01;16.90;99.90
9177;DHT22;4623;54.310;10.112;2022-10-31T11:33:47;17.00;99.90
9177;DHT22;4623;54.310;10.112;2022-10-31T11:36:30;17.00;99.90
9177;DHT22;4623;54.310;10.112;2022-10-31T11:38:57;17.00;99.90
9177;DHT22;4623;54.310;10.112;2022-10-31T11:43:58;16.80;99.90
9177;DHT22;4623;54.310;10.112;2022-10-31T11:46:34;16.80;99.90
9177;DHT22;4623;54.310;10.112;2022-10-31T11:49:01;16.90;99.90
9177;DHT22;4623;54.310;10.112;2022-10-31T11:51:30;16.90;99.90
9177;DHT22;4623;54.310;10.112;2022-10-31T11:54:01;16.90;99.90
9177;DHT22;4623;54.310;10.112;2022-10-31T11:56:40;17.10;99.90
9177;DHT22;4623;54.310;10.112;2022-10-31T11:59:16;17.20;99.90
9177;DHT22;4623;54.310;10.112;2022-10-31T12:01:50;17.30;99.90
9177;DHT22;4623;54.310;10.112;2022-10-31T12:04:16;17.60;99.90
9177;DHT22;4623;54.310;10.112;2022-10-31T12:06:44;17.90;99.90
9177;DHT22;4623;54.310;10.112;2022-10-31T12:09:33;17.90;99.90
9177;DHT22;4623;54.310;10.112;2022-10-31T12:15:33;17.60;99.90
9177;DHT22;4623;54.310;10.112;2022-10-31T12:18:24;17.80;99.90
9177;DHT22;4623;54.310;10.112;2022-10-31T12:24:03;17.60;99.90
9177;DHT22;4623;54.310;10.112;2022-10-31T12:32:40;17.00;99.90
9177;DHT22;4623;54.310;10.112;2022-10-31T12:41:00;16.70;99.90
9177;DHT22;4623;54.310;10.112;2022-10-31T12:43:45;16.60;99.90
9177;DHT22;4623;54.310;10.112;2022-10-31T12:49:09;16.80;99.90
9177;DHT22;4623;54.310;10.112;2022-10-31T12:59:34;17.20;99.90
9177;DHT22;4623;54.310;10.112;2022-10-31T13:02:23;17.60;99.90
9177;DHT22;4623;54.310;10.112;2022-10-31T13:04:56;18.10;99.90
9177;DHT22;4623;54.310;10.112;2022-10-31T13:10:00;18.20;99.90
9177;DHT22;4623;54.310;10.112;2022-10-31T13:12:28;18.20;99.90
9177;DHT22;4623;54.310;10.112;2022-10-31T13:14:58;18.10;99.90
9177;DHT22;4623;54.310;10.112;2022-10-31T13:17:33;17.80;99.90
9177;DHT22;4623;54.310;10.112;2022-10-31T13:20:28;17.40;99.90
9177;DHT22;4623;54.310;10.112;2022-10-31T13:23:04;17.00;99.90
9177;DHT22;4623;54.310;10.112;2022-10-31T13:25:38;16.90;99.90
9177;DHT22;4623;54.310;10.112;2022-10-31T13:30:48;17.50;99.90
9177;DHT22;4623;54.310;10.112;2022-10-31T13:33:30;17.50;99.90
9177;DHT22;4623;54.310;10.112;2022-10-31T13:38:53;17.60;99.90
9177;DHT22;4623;54.310;10.112;2022-10-31T13:44:16;18.00;99.90
9177;DHT22;4623;54.310;10.112;2022-10-31T13:46:43;18.00;99.90
9177;DHT22;4623;54.310;10.112;2022-10-31T13:54:37;18.20;99.90
9177;DHT22;4623;54.310;10.112;2022-10-31T13:57:34;18.20;99.90
9177;DHT22;4623;54.310;10.112;2022-10-31T14:00:26;18.00;99.90
9177;DHT22;4623;54.310;10.112;2022-10-31T14:02:55;17.60;99.90
9177;DHT22;4623;54.310;10.112;2022-10-31T14:07:49;16.90;99.90
9177;DHT22;4623;54.310;10.112;2022-10-31T14:12:46;16.50;99.90
9177;DHT22;4623;54.310;10.112;2022-10-31T14:17:52;16.00;99.90
9177;DHT22;4623;54.310;10.112;2022-10-31T14:22:44;15.60;99.90
9177;DHT22;4623;54.310;10.112;2022-10-31T14:27:54;15.30;99.90
9177;DHT22;4623;54.310;10.112;2022-10-31T14:30:24;15.50;99.90
9177;DHT22;4623;54.310;10.112;2022-10-31T14:32:54;15.60;99.90
9177;DHT22;4623;54.310;10.112;2022-10-31T14:35:24;15.60;99.90
9177;DHT22;4623;54.310;10.112;2022-10-31T14:38:13;15.60;99.90
9177;DHT22;4623;54.310;10.112;2022-10-31T14:46:28;15.60;99.90
9177;DHT22;4623;54.310;10.112;2022-10-31T14:52:08;15.20;99.90
9177;DHT22;4623;54.310;10.112;2022-10-31T14:54:45;15.10;99.90
9177;DHT22;4623;54.310;10.112;2022-10-31T14:57:19;15.00;99.90
9177;DHT22;4623;54.310;10.112;2022-10-31T14:59:49;15.00;99.90
9177;DHT22;4623;54.310;10.112;2022-10-31T15:02:32;15.00;99.90
9177;DHT22;4623;54.310;10.112;2022-10-31T15:05:06;15.10;99.90
9177;DHT22;4623;54.310;10.112;2022-10-31T15:07:33;15.00;99.90
9177;DHT22;4623;54.310;10.112;2022-10-31T15:10:05;15.00;99.90
9177;DHT22;4623;54.310;10.112;2022-10-31T15:12:33;15.00;99.90
9177;DHT22;4623;54.310;10.112;2022-10-31T15:15:13;15.00;99.90
9177;DHT22;4623;54.310;10.112;2022-10-31T15:17:44;15.00;99.90
9177;DHT22;4623;54.310;10.112;2022-10-31T15:20:12;14.90;99.90
9177;DHT22;4623;54.310;10.112;2022-10-31T15:22:42;14.80;99.90
9177;DHT22;4623;54.310;10.112;2022-10-31T15:25:18;14.70;99.90
9177;DHT22;4623;54.310;10.112;2022-10-31T15:27:44;14.60;99.90
9177;DHT22;4623;54.310;10.112;2022-10-31T15:30:36;14.60;99.90
9177;DHT22;4623;54.310;10.112;2022-10-31T15:33:01;14.50;99.90
9177;DHT22;4623;54.310;10.112;2022-10-31T15:35:29;14.50;99.90
9177;DHT22;4623;54.310;10.112;2022-10-31T15:37:56;14.40;99.90
9177;DHT22;4623;54.310;10.112;2022-10-31T15:40:24;14.40;99.90
9177;DHT22;4623;54.310;10.112;2022-10-31T15:42:59;14.40;99.90
9177;DHT22;4623;54.310;10.112;2022-10-31T15:45:27;14.40;99.90
9177;DHT22;4623;54.310;10.112;2022-10-31T15:47:56;14.40;99.90
9177;DHT22;4623;54.310;10.112;2022-10-31T15:50:25;14.40;99.90
9177;DHT22;4623;54.310;10.112;2022-10-31T15:52:52;14.40;99.90
9177;DHT22;4623;54.310;10.112;2022-10-31T15:55:26;14.40;99.90
9177;DHT22;4623;54.310;10.112;2022-10-31T15:58:01;14.50;99.90
9177;DHT22;4623;54.310;10.112;2022-10-31T16:00:35;14.30;99.90
9177;DHT22;4623;54.310;10.112;2022-10-31T16:05:38;14.10;99.90
9177;DHT22;4623;54.310;10.112;2022-10-31T16:08:04;14.20;99.90
9177;DHT22;4623;54.310;10.112;2022-10-31T16:10:33;14.20;99.90
9177;DHT22;4623;54.310;10.112;2022-10-31T16:13:01;14.10;99.90
9177;DHT22;4623;54.310;10.112;2022-10-31T16:15:28;14.10;99.90
9177;DHT22;4623;54.310;10.112;2022-10-31T16:17:55;14.10;99.90
9177;DHT22;4623;54.310;10.112;2022-10-31T16:20:27;14.00;99.90
9177;DHT22;4623;54.310;10.112;2022-10-31T16:22:54;14.00;99.90
9177;DHT22;4623;54.310;10.112;2022-10-31T16:25:26;14.00;99.90
9177;DHT22;4623;54.310;10.112;2022-10-31T16:27:54;14.00;99.90
9177;DHT22;4623;54.310;10.112;2022-10-31T16:30:39;14.00;99.90
9177;DHT22;4623;54.310;10.112;2022-10-31T16:33:32;14.00;99.90
9177;DHT22;4623;54.310;10.112;2022-10-31T16:35:59;14.00;99.90
9177;DHT22;4623;54.310;10.112;2022-10-31T16:38:27;14.00;99.90
9177;DHT22;4623;54.310;10.112;2022-10-31T16:40:53;14.00;99.90
9177;DHT22;4623;54.310;10.112;2022-10-31T16:43:20;14.10;99.90
9177;DHT22;4623;54.310;10.112;2022-10-31T16:45:51;14.00;99.90
9177;DHT22;4623;54.310;10.112;2022-10-31T16:48:21;14.00;99.90
9177;DHT22;4623;54.310;10.112;2022-10-31T16:50:49;14.00;99.90
9177;DHT22;4623;54.310;10.112;2022-10-31T16:53:15;14.00;99.90
9177;DHT22;4623;54.310;10.112;2022-10-31T16:56:02;14.10;99.90
9177;DHT22;4623;54.310;10.112;2022-10-31T16:58:32;14.10;99.90
9177;DHT22;4623;54.310;10.112;2022-10-31T17:00:59;14.10;99.90
9177;DHT22;4623;54.310;10.112;2022-10-31T17:03:25;14.10;99.90
9177;DHT22;4623;54.310;10.112;2022-10-31T17:05:51;14.10;99.90
9177;DHT22;4623;54.310;10.112;2022-10-31T17:08:17;14.00;99.90
9177;DHT22;4623;54.310;10.112;2022-10-31T17:10:44;14.00;99.90
9177;DHT22;4623;54.310;10.112;2022-10-31T17:13:15;14.00;99.90
9177;DHT22;4623;54.310;10.112;2022-10-31T17:15:45;14.00;99.90
9177;DHT22;4623;54.310;10.112;2022-10-31T17:18:13;13.90;99.90
9177;DHT22;4623;54.310;10.112;2022-10-31T17:20:39;13.90;99.90
9177;DHT22;4623;54.310;10.112;2022-10-31T17:23:05;14.00;99.90
9177;DHT22;4623;54.310;10.112;2022-10-31T17:25:30;14.00;99.90
9177;DHT22;4623;54.310;10.112;2022-10-31T17:27:57;14.00;99.90
9177;DHT22;4623;54.310;10.112;2022-10-31T17:30:23;14.00;99.90
9177;DHT22;4623;54.310;10.112;2022-10-31T17:32:50;14.00;99.90
9177;DHT22;4623;54.310;10.112;2022-10-31T17:35:17;13.90;99.90
9177;DHT22;4623;54.310;10.112;2022-10-31T17:37:43;14.00;99.90
9177;DHT22;4623;54.310;10.112;2022-10-31T17:40:20;13.90;99.90
9177;DHT22;4623;54.310;10.112;2022-10-31T17:45:15;13.80;99.90
9177;DHT22;4623;54.310;10.112;2022-10-31T17:47:41;13.80;99.90
9177;DHT22;4623;54.310;10.112;2022-10-31T17:50:07;13.90;99.90
9177;DHT22;4623;54.310;10.112;2022-10-31T17:52:33;13.90;99.90
9177;DHT22;4623;54.310;10.112;2022-10-31T17:54:58;13.90;99.90
9177;DHT22;4623;54.310;10.112;2022-10-31T17:57:24;14.00;99.90
9177;DHT22;4623;54.310;10.112;2022-10-31T17:59:50;14.00;99.90
9177;DHT22;4623;54.310;10.112;2022-10-31T18:02:15;14.10;99.90
9177;DHT22;4623;54.310;10.112;2022-10-31T18:04:41;14.00;99.90
9177;DHT22;4623;54.310;10.112;2022-10-31T18:07:07;14.00;99.90
9177;DHT22;4623;54.310;10.112;2022-10-31T18:09:33;14.00;99.90
9177;DHT22;4623;54.310;10.112;2022-10-31T18:11:59;13.90;99.90
9177;DHT22;4623;54.310;10.112;2022-10-31T18:14:25;13.90;99.90
9177;DHT22;4623;54.310;10.112;2022-10-31T18:16:50;13.90;99.90
9177;DHT22;4623;54.310;10.112;2022-10-31T18:19:16;13.90;99.90